スヴァールバル空港の過去48時間の天気

スヴァールバル空港 (Svalbard Lufthavn)

現在時刻: 9/23 01:40 CEST (9/22 23:40 UTC) 以下の時間は現地時間です。

過去48時間のMETAR気象情報
時間 風向 風速(m/s) 視程 気温(℃) 湿度(%) 気圧(hPa) 天気現象
23 01:20 東南東 8 10km以上 8 66 983
23 00:50 南東 8 10km以上 8 66 983
23 00:20 南東 10 10km以上 7 70 983
22 23:50 南東 9 10km以上 7 70 983
22 23:20 南東 9 10km以上 7 76 983 弱い雨
22 22:50 南東 8 10km以上 7 70 983
22 22:20 南東 8 10km以上 6 76 983
22 21:50 南東 9 10km以上 6 70 984
22 21:20 東南東 10 10km以上 6 70 983
22 20:50 南東 11 10km以上 6 70 983
22 20:20 南東 14 10km以上 6 70 983
22 19:50 東南東 11 10km以上 5 75 984 弱い雨
22 19:20 南東 10 10km以上 6 70 984 弱い霧雨
22 18:50 南東 11 10km以上 6 65 984
22 18:20 南東 11 10km以上 6 65 984
22 17:50 南東 10 10km以上 6 70 985
22 17:20 南東 11 10km以上 6 65 986
22 16:50 南東 11 10km以上 6 65 986
22 16:20 東南東 11 10km以上 6 65 987
22 15:50 東南東 11 10km以上 6 70 988
22 15:20 東南東 12 10km以上 6 70 988 弱い雨
22 14:50 東南東 11 10km以上 6 70 989 弱い雨
22 14:20 東南東 9 10km以上 7 66 990 周辺でしゅう雨
22 13:50 東南東 9 10km以上 7 70 990 周辺でしゅう雨
22 13:20 東南東 10 10km以上 7 70 991
22 12:50 東南東 11 10km以上 7 70 991 周辺でしゅう雨
22 12:20 東南東 9 10km以上 7 70 992
22 11:50 東南東 9 10km以上 7 70 993 周辺でしゅう雨
22 11:20 南東 9 10km以上 7 70 993 弱い雨
22 10:50 南東 10 10km以上 6 76 993 弱い雨
22 10:20 南東 12 10km以上 6 70 994 弱い雨
22 09:50 東南東 10 10km以上 6 76 994
22 09:20 南東 10 10km以上 6 70 995
22 08:50 南東 9 10km以上 5 75 995
22 08:20 東南東 10 10km以上 6 70 996
22 07:50 東南東 8 10km以上 6 70 996
22 07:20 南東 8 10km以上 6 65 997
22 06:50 南東 8 10km以上 5 70 998
22 06:20 南東 8 10km以上 5 70 999
22 05:50 南東 8 10km以上 5 70 999
22 05:20 南東 7 10km以上 5 70 1000
22 04:50 南東 5 10km以上 5 65 1000
22 04:20 南東 6 10km以上 5 70 1001
22 03:50 南東 6 10km以上 5 65 1001
22 03:20 南東 6 10km以上 5 70 1001
22 02:50 南東 6 10km以上 5 70 1002
22 01:50 南東 6 10km以上 6 65 1002
22 01:20 南東 5 10km以上 6 65 1002
22 00:50 南東 5 10km以上 5 70 1003
22 00:20 南西 3 10km以上 6 70 1003
21 23:50 不定 1 10km以上 6 76 1003
21 23:20 不定 2 10km以上 6 81 1004
21 22:50 不定 1 10km以上 6 93 1004
21 22:20 不定 1 10km以上 6 93 1004
21 21:50 不定 1 10km以上 6 93 1004
21 21:20 不定 2 10km以上 5 93 1005 周辺で霧 弱い霧雨
21 20:50 静穏 0 10km以上 5 100 1005 周辺で霧 弱い霧雨
21 20:20 不定 1 10km以上 5 100 1005 部分霧 弱い霧雨
21 19:50 東南東 2 10km以上 6 93 1005 周辺で霧 周辺でしゅう雨
21 19:20 静穏 0 7000m 5 100 1006 周辺で霧
21 18:50 静穏 0 7000m 5 100 1006 周辺で霧
21 17:50 西 2 10km以上 5 100 1006 部分霧 弱い雨 弱い霧雨
21 17:20 不定 2 800m 6 93 1006 霧 弱い雨 弱い霧雨
21 16:50 西 2 10km以上 6 93 1007 もや
21 16:20 西 2 10km以上 6 93 1007 周辺でしゅう雨
21 15:50 西南西 2 10km以上 7 87 1007 周辺でしゅう雨
21 15:20 西 2 10km以上 7 93 1007 周辺でしゅう雨
21 14:50 不定 1 10km以上 6 93 1007 周辺でしゅう雨
21 14:20 不定 1 10km以上 6 93 1008 周辺でしゅう雨
21 13:50 不定 1 10km以上 7 93 1008 弱い霧雨
21 13:20 東南東 2 10km以上 6 93 1008 弱い霧雨 弱い雨
21 12:50 不定 1 10km以上 6 93 1008 弱い雨
21 12:20 2 10km以上 7 93 1008 周辺でしゅう雨
21 11:50 東南東 2 10km以上 6 93 1008 周辺でしゅう雨
21 11:20 不定 1 10km以上 7 93 1008 周辺でしゅう雨
21 10:50 静穏 0 10km以上 7 93 1008 周辺でしゅう雨
21 10:20 静穏 0 10km以上 7 93 1008 周辺でしゅう雨
21 09:50 不定 1 10km以上 6 93 1008 周辺でしゅう雨
21 09:20 西 2 10km以上 5 100 1007
21 08:50 西南西 2 10km以上 5 100 1007 周辺でしゅう雨
21 08:20 西 2 10km以上 5 100 1007 周辺でしゅう雨
21 07:50 西 2 10km以上 5 100 1007 周辺でしゅう雨
21 07:20 静穏 0 10km以上 5 93 1007 周辺でしゅう雨
21 06:50 西 2 10km以上 5 100 1007
21 06:20 西南西 2 10km以上 5 93 1007
21 05:50 不定 1 10km以上 5 93 1007 弱い霧雨
21 05:20 西 2 10km以上 5 93 1007 弱い雨
21 04:50 西 2 10km以上 5 93 1007 弱い雨
21 04:20 西 1 10km以上 5 93 1007 弱い雨
21 03:20 静穏 0 10km以上 5 93 1007
21 02:20 静穏 0 10km以上 5 93 1007
21 01:50 静穏 0 10km以上 5 93 1007
ENSB 222320Z 12016KT 9999 FEW042 BKN120 08/02 Q0983 RMK WIND 1400FT 12020KT
ENSB 222250Z 13015KT 9999 FEW032 BKN120 08/02 Q0983 RMK WIND 1400FT 12018KT
ENSB 222220Z 13020KT 9999 FEW025 SCT090 07/02 Q0983 RMK WIND 1400FT 12022KT
ENSB 222150Z 13018KT 9999 FEW025 SCT090 07/02 Q0983 RMK WIND 1400FT 12019KT
ENSB 222120Z 13017KT 9999 -RA SCT023 07/03 Q0983 RMK WIND 1400FT 12020KT
ENSB 222050Z 13016KT 9999 FEW030 SCT090 07/02 Q0983 RMK WIND 1400FT 12019KT
ENSB 222020Z 13015KT 9999 FEW030 SCT090 06/02 Q0983 RMK WIND 1400FT 13020KT
ENSB 221950Z 13018KT 9999 FEW030 BKN090 06/01 Q0984 RMK WIND 1400FT 12023KT
ENSB 221920Z 12019KT 9999 SCT030 BKN080 06/01 Q0983 RMK WIND 1400FT 11021KT
ENSB 221850Z 13021KT 9999 SCT030 BKN080 06/01 Q0983 RMK WIND 1400FT 12025KT
ENSB 221820Z 13028KT 9999 FEW025 BKN036 06/01 Q0983 RMK WIND 1400FT 12028KT
ENSB 221750Z 12021KT 9999 -RA BKN036 05/01 Q0984 RMK WIND 1400FT 11030KT
ENSB 221720Z 13020KT 9999 -DZ BKN036 06/01 Q0984 RMK WIND 1400FT 10027KT
ENSB 221650Z 13021KT 9999 BKN036 06/00 Q0984 RMK WIND 1400FT 10026G38KT
ENSB 221620Z 13021KT 9999 BKN034 06/00 Q0984 RMK WIND 1400FT 10024KT
ENSB 221550Z 13019KT 9999 BKN034 06/01 Q0985 RMK WIND 1400FT 10026G37KT
ENSB 221520Z 13021KT 9999 FEW025 BKN034 06/00 Q0986 RMK WIND 1400FT 10028G40KT
ENSB 221450Z 13021KT 9999 FEW025 BKN034 06/00 Q0986 RMK WIND 1400FT 11029KT
ENSB 221420Z 12021KT 9999 FEW025 BKN034 06/00 Q0987 RMK WIND 1400FT 10029KT
ENSB 221350Z 12022KT 9999 FEW025 BKN035 06/01 Q0988 RMK WIND 1400FT 11028G39KT
ENSB 221320Z 12024KT 9999 -RA FEW025 SCT035 06/01 Q0988 TEMPO 12025G35KT RMK WIND 1400FT 11029KT
ENSB 221250Z 12022KT 9999 -RA FEW025 BKN035 06/01 Q0989 TEMPO 12025G35KT RMK WIND 1400FT 11028KT
ENSB 221220Z 11018G30KT 9999 VCSH FEW025 SCT035 BKN180 07/01 Q0990 TEMPO 11025KT RMK WIND 1400FT 11025G36KT
ENSB 221150Z 11017KT 080V140 9999 VCSH FEW025 BKN035 07/02 Q0990 TEMPO 11020G30KT RMK WIND 1400FT 11025G35KT
ENSB 221120Z 12020KT 9999 FEW025 SCT035 BKN180 07/02 Q0991 TEMPO 12020G30KT RMK WIND 1400FT 11026G39KT
ENSB 221050Z 12022KT 9999 VCSH FEW025 SCT035 BKN140 07/02 Q0991 TEMPO 12025G35KT RMK WIND 1400FT 11023KT
ENSB 221020Z 12018KT 9999 FEW025 BKN140 07/02 Q0992 TEMPO 13020G30KT RMK WIND 1400FT 12025KT
ENSB 220950Z 12017KT 9999 VCSH FEW020 BKN140 07/02 Q0993 TEMPO 13020G30KT RMK WIND 1400FT 13024KT
ENSB 220920Z 13018KT 9999 -RA FEW020 SCT050 BKN100 07/02 Q0993 TEMPO 13020G30KT RMK WIND 1400FT 12024KT
ENSB 220850Z 13020KT 9999 -RA FEW020 SCT050 BKN100 06/02 Q0993 TEMPO 13020G30KT RMK WIND 1400FT 12023KT
ENSB 220820Z 13023KT 9999 -RA FEW020 SCT050 BKN100 06/01 Q0994 TEMPO 13025G35KT RMK WIND 1400FT 12027KT
ENSB 220750Z 12019KT 9999 FEW020 SCT050 BKN100 06/02 Q0994 TEMPO 12020G30KT RMK WIND 1400FT 12025KT
ENSB 220720Z 13019KT 9999 FEW020 SCT050 BKN140 06/01 Q0995 TEMPO 13020G30KT RMK WIND 1400FT 11021KT
ENSB 220650Z 13018G32KT 9999 FEW020 SCT050 BKN070 05/01 Q0995 TEMPO 12020KT RMK WIND 1400FT 11021KT
ENSB 220620Z 12019KT 9999 FEW020 SCT050 BKN070 06/01 Q0996 RMK WIND 1400FT 11022KT
ENSB 220550Z 12015KT 9999 FEW025 SCT055 BKN070 06/01 Q0996 RMK WIND 1400FT 10016KT
ENSB 220520Z 13015KT 9999 FEW030 SCT070 06/00 Q0997 RMK WIND 1400FT 12014KT
ENSB 220450Z 14016KT 9999 FEW030 SCT070 05/M00 Q0998 RMK WIND 1400FT 12012KT
ENSB 220420Z 13016KT 9999 FEW030 SCT070 05/00 Q0999 RMK WIND 1400FT 13016KT
ENSB 220350Z 13015KT 9999 FEW030 SCT076 05/M00 Q0999 RMK WIND 1400FT 12014KT
ENSB 220320Z 13013KT 9999 FEW025 SCT150 05/M00 Q1000 RMK WIND 1400FT 12013KT
ENSB 220250Z 13010KT 9999 FEW025 SCT100 05/M01 Q1000 RMK WIND 1400FT 15012KT
ENSB 220220Z 13011KT 9999 SCT130 05/M00 Q1001 RMK WIND 1400FT 13010KT
ENSB 220150Z 13012KT 9999 FEW027 05/M01 Q1001 RMK WIND 1400FT 14010KT
ENSB 220120Z 14011KT 9999 FEW027 05/M00 Q1001 RMK WIND 1400FT 15011KT
ENSB 220050Z 13012KT 9999 FEW030 05/M00 Q1002 RMK WIND 1400FT 13012KT
ENSB 212350Z 14011KT 9999 FEW030 06/M00 Q1002 RMK WIND 1400FT 13010KT
ENSB 212320Z 13010KT 9999 FEW030 06/M00 Q1002 RMK WIND 1400FT 13011KT
ENSB 212250Z 13009KT 9999 NSC 05/00 Q1003 RMK WIND 1400FT 13010KT
ENSB 212220Z 23006KT 170V270 9999 FEW032 06/01 Q1003 RMK WIND 1400FT 15004KT
ENSB 212150Z VRB01KT 9999 FEW038 06/02 Q1003 RMK WIND 1400FT VRB03KT
ENSB 212120Z VRB03KT 9999 FEW038 06/03 Q1004 RMK WIND 1400FT 13003KT
ENSB 212050Z VRB02KT 9999 SCT030 06/05 Q1004 RMK WIND 1400FT 26006KT
ENSB 212020Z VRB02KT 9999 BKN025 06/05 Q1004 RMK WIND 1400FT VRB03KT
ENSB 211950Z VRB01KT 9999 SCT002 BKN025 06/05 Q1004 RMK WIND 1400FT 24004KT
ENSB 211920Z VRB03KT 9999 4000W VCFG -DZ SCT002 BKN030 05/04 Q1005 RMK WIND 1400FT VRB03KT
ENSB 211850Z 00000KT 9999 3000W VCFG -DZ SCT002 BKN030 05/05 Q1005 RMK WIND 1400FT 31003KT
ENSB 211820Z VRB02KT 9999 0800W PRFG -DZ SCT002 BKN030 05/05 Q1005 RMK WIND 1400FT VRB02KT
ENSB 211750Z 11004KT 080V140 9999 VCFG VCSH FEW002 BKN025 06/05 Q1005 RMK WIND 1400FT 17003KT
ENSB 211720Z 00000KT 7000 VCFG SCT002 BKN025 05/05 Q1006 RMK WIND 1400FT 21006KT
ENSB 211650Z 00000KT 7000 VCFG SCT002 BKN025 05/05 Q1006 RMK WIND 1400FT 00000KT
ENSB 211550Z 26004KT 9999 PRFG -RADZ SCT002 BKN020 05/05 Q1006 RMK WIND 1400FT VRB02KT
ENSB 211520Z VRB03KT 0800 FG -RADZ VV002 06/05 Q1006 RMK WIND 1400FT VRB01KT
ENSB 211450Z 26004KT 9999 1500E BR VV002 06/05 Q1007 TEMPO 0800 FG VV001 RMK WIND 1400FT VRB02KT
ENSB 211420Z 27003KT 9999 VCSH FEW005 BKN025 06/05 Q1007 NOSIG RMK WIND 1400FT 09003KT
ENSB 211350Z 25004KT 9999 VCSH FEW005 BKN030 07/05 Q1007 NOSIG RMK WIND 1400FT VRB01KT
ENSB 211320Z 26004KT 9999 VCSH FEW005 BKN030 07/06 Q1007 NOSIG RMK WIND 1400FT VRB02KT
ENSB 211250Z VRB01KT 9999 VCSH FEW010 BKN030 06/05 Q1007 NOSIG RMK WIND 1400FT 00000KT
ENSB 211220Z VRB02KT 9999 VCSH FEW010 BKN025 06/05 Q1008 NOSIG RMK WIND 1400FT 14004KT
ENSB 211150Z VRB02KT 9999 -DZ FEW010 BKN025 07/06 Q1008 NOSIG RMK WIND 1400FT 14006KT
ENSB 211120Z 12004KT 080V170 9999 -DZRA FEW010 BKN025 06/05 Q1008 NOSIG RMK WIND 1400FT 12005KT
ENSB 211050Z VRB02KT 9999 -RA FEW010 BKN025 06/05 Q1008 NOSIG RMK WIND 1400FT VRB03KT
ENSB 211020Z 10004KT 050V120 9999 VCSH FEW010 BKN025 07/06 Q1008 NOSIG RMK WIND 1400FT 13003KT
ENSB 210950Z 11004KT 070V140 9999 VCSH FEW010 BKN025 06/05 Q1008 NOSIG RMK WIND 1400FT VRB02KT
ENSB 210920Z VRB02KT 9999 VCSH FEW010 BKN025 07/06 Q1008 NOSIG RMK WIND 1400FT 22005KT
ENSB 210850Z 00000KT 9999 VCSH FEW010 SCT025 BKN030 07/06 Q1008 NOSIG RMK WIND 1400FT 22008KT
ENSB 210820Z 00000KT 9999 VCSH FEW010 BKN030 07/06 Q1008 NOSIG RMK WIND 1400FT 21009KT
ENSB 210750Z VRB02KT 9999 VCSH FEW003 BKN030 06/05 Q1008 NOSIG RMK WIND 1400FT 21012KT
ENSB 210720Z 27003KT 220V310 9999 FEW003 BKN030 05/05 Q1007 NOSIG RMK WIND 1400FT 22012KT
ENSB 210650Z 25003KT 220V300 9999 VCSH FEW003 BKN030 05/05 Q1007 NOSIG RMK WIND 1400FT 22011KT
ENSB 210620Z 26003KT 9999 VCSH FEW003 BKN029 05/05 Q1007 RMK WIND 1400FT 22010KT
ENSB 210550Z 26003KT 9999 VCSH FEW003 BKN029 05/05 Q1007 RMK WIND 1400FT 23009KT
ENSB 210520Z 00000KT 9999 VCSH FEW003 BKN029 05/04 Q1007 RMK WIND 1400FT 21006KT
ENSB 210450Z 27003KT 9999 FEW015 BKN028 05/05 Q1007 RMK WIND 1400FT 21007KT
ENSB 210420Z 25003KT 240V300 9999 FEW015 BKN028 05/04 Q1007 RMK WIND 1400FT VRB04KT
ENSB 210350Z VRB02KT 9999 -DZ SCT029 BKN036 05/04 Q1007 RMK WIND 1400FT VRB02KT
ENSB 210320Z 26004KT 9999 -RA OVC029 05/04 Q1007 RMK WIND 1400FT VRB03KT
ENSB 210250Z 27003KT 9999 -RA OVC027 05/04 Q1007 RMK WIND 1400FT VRB03KT
ENSB 210220Z 26002KT 9999 -RA OVC027 05/04 Q1007 RMK WIND 1400FT VRB02KT
ENSB 210120Z 00000KT 9999 OVC029 05/04 Q1007 RMK WIND 1400FT VRB02KT
ENSB 210020Z 00000KT 9999 BKN032 05/04 Q1007 RMK WIND 1400FT 24005KT
ENSB 202350Z 00000KT 9999 BKN031 05/04 Q1007 RMK WIND 1400FT 19006KT